sensor_id;sensor_type;location;lat;lon;timestamp;temperature;humidity
63094;DHT22;49183;51.380;0.098;2023-04-19T11:24:34;13.90;67.00
63094;DHT22;49183;51.380;0.098;2023-04-19T11:47:33;13.60;69.10
63094;DHT22;49183;51.380;0.098;2023-04-19T12:09:19;13.90;68.50
63094;DHT22;49183;51.380;0.098;2023-04-19T12:11:50;14.20;68.30
63094;DHT22;49183;51.380;0.098;2023-04-19T12:14:20;14.30;67.70
63094;DHT22;49183;51.380;0.098;2023-04-19T12:17:10;14.40;66.40
63094;DHT22;49183;51.380;0.098;2023-04-19T12:19:52;14.40;66.40
63094;DHT22;49183;51.380;0.098;2023-04-19T12:22:24;14.30;66.40
63094;DHT22;49183;51.380;0.098;2023-04-19T12:24:53;14.30;66.70
63094;DHT22;49183;51.380;0.098;2023-04-19T12:27:22;14.30;66.50
63094;DHT22;49183;51.380;0.098;2023-04-19T12:29:51;14.40;67.00
63094;DHT22;49183;51.380;0.098;2023-04-19T12:32:19;14.40;67.00
63094;DHT22;49183;51.380;0.098;2023-04-19T12:34:47;14.40;66.00
63094;DHT22;49183;51.380;0.098;2023-04-19T12:37:15;14.40;66.40
63094;DHT22;49183;51.380;0.098;2023-04-19T12:39:43;14.30;65.00
63094;DHT22;49183;51.380;0.098;2023-04-19T12:42:10;14.30;65.90
63094;DHT22;49183;51.380;0.098;2023-04-19T12:44:38;14.30;65.30
63094;DHT22;49183;51.380;0.098;2023-04-19T12:47:06;14.40;63.90
63094;DHT22;49183;51.380;0.098;2023-04-19T12:49:33;14.50;63.50
63094;DHT22;49183;51.380;0.098;2023-04-19T12:52:01;14.60;63.10
63094;DHT22;49183;51.380;0.098;2023-04-19T12:54:29;14.60;63.90
63094;DHT22;49183;51.380;0.098;2023-04-19T12:56:59;14.70;64.00
63094;DHT22;49183;51.380;0.098;2023-04-19T12:59:29;14.80;62.60
63094;DHT22;49183;51.380;0.098;2023-04-19T13:01:57;14.70;62.60
63094;DHT22;49183;51.380;0.098;2023-04-19T13:04:25;14.70;62.50
63094;DHT22;49183;51.380;0.098;2023-04-19T13:06:53;14.80;62.40
63094;DHT22;49183;51.380;0.098;2023-04-19T13:09:21;14.80;62.60
63094;DHT22;49183;51.380;0.098;2023-04-19T13:11:48;14.80;62.60
63094;DHT22;49183;51.380;0.098;2023-04-19T13:14:16;14.80;62.80
63094;DHT22;49183;51.380;0.098;2023-04-19T13:16:44;14.80;63.20
63094;DHT22;49183;51.380;0.098;2023-04-19T13:19:12;14.90;61.90
63094;DHT22;49183;51.380;0.098;2023-04-19T13:21:40;14.90;61.90
63094;DHT22;49183;51.380;0.098;2023-04-19T13:24:08;15.10;61.90
63094;DHT22;49183;51.380;0.098;2023-04-19T13:26:36;15.20;62.20
63094;DHT22;49183;51.380;0.098;2023-04-19T13:29:04;15.30;60.90
63094;DHT22;49183;51.380;0.098;2023-04-19T13:31:32;15.40;59.90
63094;DHT22;49183;51.380;0.098;2023-04-19T13:34:00;15.40;59.70
63094;DHT22;49183;51.380;0.098;2023-04-19T13:36:28;15.40;59.40
63094;DHT22;49183;51.380;0.098;2023-04-19T13:38:56;15.30;58.80
63094;DHT22;49183;51.380;0.098;2023-04-19T13:41:24;15.20;59.30
63094;DHT22;49183;51.380;0.098;2023-04-19T13:43:52;15.20;58.80
63094;DHT22;49183;51.380;0.098;2023-04-19T13:46:19;15.30;59.00
63094;DHT22;49183;51.380;0.098;2023-04-19T13:48:47;15.30;58.60
63094;DHT22;49183;51.380;0.098;2023-04-19T13:51:15;15.20;58.90
63094;DHT22;49183;51.380;0.098;2023-04-19T13:53:42;15.20;58.40
63094;DHT22;49183;51.380;0.098;2023-04-19T13:56:10;15.30;58.70
63094;DHT22;49183;51.380;0.098;2023-04-19T13:58:38;15.60;58.20
63094;DHT22;49183;51.380;0.098;2023-04-19T14:01:06;15.90;57.50
63094;DHT22;49183;51.380;0.098;2023-04-19T14:03:34;16.00;57.50
63094;DHT22;49183;51.380;0.098;2023-04-19T14:06:03;16.10;57.00
63094;DHT22;49183;51.380;0.098;2023-04-19T14:08:30;16.10;55.30
63094;DHT22;49183;51.380;0.098;2023-04-19T14:10:58;16.00;56.90
63094;DHT22;49183;51.380;0.098;2023-04-19T14:13:26;16.00;55.90
63094;DHT22;49183;51.380;0.098;2023-04-19T14:15:53;15.80;54.90
63094;DHT22;49183;51.380;0.098;2023-04-19T14:18:21;15.70;55.50
63094;DHT22;49183;51.380;0.098;2023-04-19T14:20:49;15.80;55.40
63094;DHT22;49183;51.380;0.098;2023-04-19T14:23:16;15.80;53.70
63094;DHT22;49183;51.380;0.098;2023-04-19T14:25:44;15.80;52.90
63094;DHT22;49183;51.380;0.098;2023-04-19T14:28:12;15.60;53.50
63094;DHT22;49183;51.380;0.098;2023-04-19T14:30:40;15.40;53.80
63094;DHT22;49183;51.380;0.098;2023-04-19T14:33:07;15.40;55.00
63094;DHT22;49183;51.380;0.098;2023-04-19T14:35:36;15.60;55.50
63094;DHT22;49183;51.380;0.098;2023-04-19T14:38:03;15.70;53.10
63094;DHT22;49183;51.380;0.098;2023-04-19T14:40:31;15.70;52.00
63094;DHT22;49183;51.380;0.098;2023-04-19T14:42:58;15.60;51.70
63094;DHT22;49183;51.380;0.098;2023-04-19T14:45:27;15.50;51.50
63094;DHT22;49183;51.380;0.098;2023-04-19T14:47:54;15.50;51.70
63094;DHT22;49183;51.380;0.098;2023-04-19T14:50:22;15.40;50.40
63094;DHT22;49183;51.380;0.098;2023-04-19T14:52:50;15.20;48.10
63094;DHT22;49183;51.380;0.098;2023-04-19T14:55:18;15.00;48.30
63094;DHT22;49183;51.380;0.098;2023-04-19T14:57:45;14.80;49.40
63094;DHT22;49183;51.380;0.098;2023-04-19T15:00:13;14.80;48.00
63094;DHT22;49183;51.380;0.098;2023-04-19T15:02:41;14.80;45.40
63094;DHT22;49183;51.380;0.098;2023-04-19T15:05:09;14.80;44.00
63094;DHT22;49183;51.380;0.098;2023-04-19T15:07:37;14.80;43.10
63094;DHT22;49183;51.380;0.098;2023-04-19T15:10:06;14.90;44.00
63094;DHT22;49183;51.380;0.098;2023-04-19T15:12:34;15.10;44.30
63094;DHT22;49183;51.380;0.098;2023-04-19T15:15:02;15.10;44.50
63094;DHT22;49183;51.380;0.098;2023-04-19T15:17:29;15.20;44.60
63094;DHT22;49183;51.380;0.098;2023-04-19T15:19:57;15.20;42.70
63094;DHT22;49183;51.380;0.098;2023-04-19T15:22:25;15.30;42.20
63094;DHT22;49183;51.380;0.098;2023-04-19T15:24:53;15.20;42.50
63094;DHT22;49183;51.380;0.098;2023-04-19T15:27:21;15.30;42.40
63094;DHT22;49183;51.380;0.098;2023-04-19T15:29:48;15.30;41.10
63094;DHT22;49183;51.380;0.098;2023-04-19T15:32:16;15.40;40.50
63094;DHT22;49183;51.380;0.098;2023-04-19T15:34:44;15.40;40.00
63094;DHT22;49183;51.380;0.098;2023-04-19T15:37:12;15.30;39.60
63094;DHT22;49183;51.380;0.098;2023-04-19T15:39:40;15.30;39.40
63094;DHT22;49183;51.380;0.098;2023-04-19T15:42:07;15.20;40.30
63094;DHT22;49183;51.380;0.098;2023-04-19T15:44:35;15.20;39.80
63094;DHT22;49183;51.380;0.098;2023-04-19T15:47:03;15.20;39.20
63094;DHT22;49183;51.380;0.098;2023-04-19T15:49:31;15.10;38.50
63094;DHT22;49183;51.380;0.098;2023-04-19T15:51:59;15.10;38.60
63094;DHT22;49183;51.380;0.098;2023-04-19T15:54:26;15.10;38.00
63094;DHT22;49183;51.380;0.098;2023-04-19T15:56:55;15.10;38.50
63094;DHT22;49183;51.380;0.098;2023-04-19T15:59:23;15.10;37.60
63094;DHT22;49183;51.380;0.098;2023-04-19T16:01:51;15.00;37.40
63094;DHT22;49183;51.380;0.098;2023-04-19T16:04:19;15.00;38.30
63094;DHT22;49183;51.380;0.098;2023-04-19T16:06:47;14.90;39.00
63094;DHT22;49183;51.380;0.098;2023-04-19T16:09:15;14.90;38.50
63094;DHT22;49183;51.380;0.098;2023-04-19T16:11:43;14.80;37.30
63094;DHT22;49183;51.380;0.098;2023-04-19T16:14:10;14.80;36.10
63094;DHT22;49183;51.380;0.098;2023-04-19T16:16:38;14.70;36.00
63094;DHT22;49183;51.380;0.098;2023-04-19T16:19:06;14.70;35.90
63094;DHT22;49183;51.380;0.098;2023-04-19T16:21:34;14.60;36.00
63094;DHT22;49183;51.380;0.098;2023-04-19T16:24:02;14.60;35.80
63094;DHT22;49183;51.380;0.098;2023-04-19T16:26:29;14.50;36.40
63094;DHT22;49183;51.380;0.098;2023-04-19T16:28:57;14.40;36.10
63094;DHT22;49183;51.380;0.098;2023-04-19T16:31:25;14.40;36.80
63094;DHT22;49183;51.380;0.098;2023-04-19T16:33:53;14.40;36.60
63094;DHT22;49183;51.380;0.098;2023-04-19T16:36:21;14.40;37.20
63094;DHT22;49183;51.380;0.098;2023-04-19T16:38:49;14.30;37.70
63094;DHT22;49183;51.380;0.098;2023-04-19T16:41:17;14.10;39.20
63094;DHT22;49183;51.380;0.098;2023-04-19T16:43:47;14.00;39.20
63094;DHT22;49183;51.380;0.098;2023-04-19T16:46:16;14.00;38.80
